Degray, Arkansas
Current Conditions -  °F | °C
As of 5:56 PM on Sunday 25 Jan 2015 (Local Time) from KADF Reporting Station
Overcast Overcast  
Wind Chill: 55°   Ceiling: 6500
Heat Index: 55°   Visibility: 10mi
Dew Point: 33°   Wind: 9mph
Humidity: 43%   Direction: 280°W
Pressure: 29.95"   Gusts: NA
Location:  34.0941°N, 93.0475°W
Report Text: KADF 252356Z AUTO 28008KT 10SM OVC065 13/01 A2995 RMK AO2 52031 T01270005 10172 20122 OVC V BKN SLP157
Loading
Personal Weather Stations






























Interactive Weather Map New forecast layout! Learn more

10-Day Weather Forecast

Advertisements
Track Severe Weather on mobile